createdAt,value
2019-02-16T00:00:58.153Z,53.27
2019-02-16T00:03:29.411Z,50.80
2019-02-16T00:05:58.205Z,50.53
2019-02-16T00:08:28.645Z,62.40
2019-02-16T00:10:59.248Z,61.93
2019-02-16T00:13:28.232Z,52.87
2019-02-16T00:15:56.853Z,51.27
2019-02-16T00:18:25.636Z,49.90
2019-02-16T00:21:03.447Z,56.17
2019-02-16T00:23:24.857Z,44.07
2019-02-16T00:25:53.474Z,48.70
2019-02-16T00:28:22.244Z,54.37
2019-02-16T00:30:51.277Z,48.67
2019-02-16T00:33:24.361Z,65.23
2019-02-16T00:35:55.961Z,58.00
2019-02-16T00:38:24.858Z,59.23
2019-02-16T00:40:53.529Z,56.77
2019-02-16T00:43:23.034Z,60.43
2019-02-16T00:45:53.027Z,52.30
2019-02-16T00:48:24.550Z,50.90
2019-02-16T00:50:55.971Z,59.33
2019-02-16T00:53:27.976Z,51.67
2019-02-16T00:56:00.954Z,51.43
2019-02-16T00:58:29.898Z,57.23
2019-02-16T01:00:58.447Z,52.90
2019-02-16T01:03:28.267Z,53.33
2019-02-16T01:05:58.012Z,48.73
2019-02-16T01:08:26.604Z,51.60
2019-02-16T01:10:55.416Z,41.87
2019-02-16T01:13:24.182Z,47.47
2019-02-16T01:15:52.703Z,49.87
2019-02-16T01:18:21.635Z,46.77
2019-02-16T01:20:50.234Z,48.73
2019-02-16T01:23:18.884Z,47.93
2019-02-16T01:25:47.447Z,44.73
2019-02-16T01:28:16.104Z,46.80
2019-02-16T01:30:46.548Z,39.30
2019-02-16T01:33:15.344Z,46.43
2019-02-16T01:35:46.424Z,49.30
2019-02-16T01:38:15.137Z,43.47
2019-02-16T01:40:43.754Z,41.27
2019-02-16T01:43:13.807Z,48.47
2019-02-16T01:45:42.481Z,40.23
2019-02-16T01:48:11.087Z,48.73
2019-02-16T01:50:41.461Z,40.73
2019-02-16T01:53:10.124Z,40.93
2019-02-16T01:55:39.045Z,50.23
2019-02-16T01:58:09.429Z,39.73
2019-02-16T02:00:38.087Z,44.27
2019-02-16T02:03:06.693Z,38.13
2019-02-16T02:05:35.522Z,41.37
2019-02-16T02:08:04.117Z,38.33
2019-02-16T02:10:32.866Z,35.90
2019-02-16T02:13:02.231Z,43.23
2019-02-16T02:15:31.518Z,37.73
2019-02-16T02:18:00.157Z,34.63
2019-02-16T02:20:29.501Z,32.20
2019-02-16T02:22:58.216Z,36.23
2019-02-16T02:25:30.621Z,30.90
2019-02-16T02:28:01.503Z,36.73
2019-02-16T02:30:30.229Z,40.00
2019-02-16T02:33:00.452Z,34.87
2019-02-16T02:35:29.171Z,33.13
2019-02-16T02:37:57.776Z,36.63
2019-02-16T02:40:26.321Z,33.93
2019-02-16T02:42:55.002Z,35.17
2019-02-16T02:45:23.595Z,34.00
2019-02-16T02:47:53.618Z,37.93
2019-02-16T02:50:22.278Z,31.73
2019-02-16T02:52:52.010Z,30.70
2019-02-16T02:55:20.886Z,32.87
2019-02-16T02:57:49.509Z,33.00
2019-02-16T03:00:18.190Z,40.27
2019-02-16T03:02:46.970Z,35.97
2019-02-16T03:05:15.642Z,34.13
2019-02-16T03:07:44.278Z,32.33
2019-02-16T03:10:12.933Z,29.30
2019-02-16T03:12:41.439Z,29.27
2019-02-16T03:15:12.851Z,36.43
2019-02-16T03:17:43.340Z,30.50
2019-02-16T03:20:11.942Z,30.40
2019-02-16T03:23:00.430Z,35.30
2019-02-16T03:25:29.145Z,33.77
2019-02-16T03:28:25.110Z,34.73
2019-02-16T03:31:13.466Z,33.50
2019-02-16T03:33:47.756Z,34.33
2019-02-16T03:36:37.636Z,32.63
2019-02-16T03:39:12.646Z,34.53
2019-02-16T03:41:41.313Z,37.13
2019-02-16T03:44:10.972Z,32.20
2019-02-16T03:46:41.698Z,38.07
2019-02-16T03:49:12.376Z,28.93
2019-02-16T03:51:42.669Z,32.77
2019-02-16T03:54:11.246Z,33.10
2019-02-16T03:56:43.143Z,33.83
2019-02-16T03:59:11.744Z,30.10
2019-02-16T04:01:40.661Z,29.10
2019-02-16T04:04:09.233Z,38.10
2019-02-16T04:06:37.806Z,33.87
2019-02-16T04:09:07.132Z,34.57
2019-02-16T04:11:35.664Z,36.60
2019-02-16T04:14:04.382Z,36.23
2019-02-16T04:16:32.983Z,40.10
2019-02-16T04:19:02.570Z,32.13
2019-02-16T04:21:31.298Z,38.40
2019-02-16T04:23:59.934Z,37.93
2019-02-16T04:26:29.712Z,40.47
2019-02-16T04:28:58.345Z,38.07
2019-02-16T04:31:26.872Z,41.50
2019-02-16T04:33:55.487Z,38.33
2019-02-16T04:36:24.226Z,37.87
2019-02-16T04:38:54.617Z,35.90
2019-02-16T04:41:23.344Z,35.43
2019-02-16T04:43:51.992Z,43.47
2019-02-16T04:46:21.728Z,44.63
2019-02-16T04:48:50.365Z,42.60
2019-02-16T04:51:18.927Z,41.33
2019-02-16T04:53:47.528Z,40.27
2019-02-16T04:56:16.234Z,46.17
2019-02-16T04:58:44.864Z,36.60
2019-02-16T05:01:14.589Z,37.17
2019-02-16T05:03:46.146Z,39.63
2019-02-16T05:06:14.795Z,42.77
2019-02-16T05:08:44.886Z,37.80
2019-02-16T05:11:14.249Z,42.60
2019-02-16T05:13:42.841Z,35.23
2019-02-16T05:16:11.748Z,41.97
2019-02-16T05:18:40.403Z,41.93
2019-02-16T05:21:10.608Z,43.23
2019-02-16T05:23:39.775Z,41.30
2019-02-16T05:26:11.610Z,41.10
2019-02-16T05:28:40.670Z,43.10
2019-02-16T05:31:09.304Z,41.03
2019-02-16T05:33:38.096Z,44.43
2019-02-16T05:36:07.780Z,42.80
2019-02-16T05:38:36.447Z,41.67
2019-02-16T05:41:04.993Z,38.97
2019-02-16T05:43:33.732Z,40.03
2019-02-16T05:46:02.345Z,50.03
2019-02-16T05:48:30.973Z,40.87
2019-02-16T05:50:59.957Z,44.70
2019-02-16T05:53:28.555Z,39.43
2019-02-16T05:55:57.273Z,44.33
2019-02-16T05:58:25.906Z,47.27
2019-02-16T06:00:54.569Z,40.50
2019-02-16T06:03:27.790Z,45.70
2019-02-16T06:05:56.504Z,43.87
2019-02-16T06:08:26.859Z,45.80
2019-02-16T06:10:55.448Z,39.70
2019-02-16T06:13:24.071Z,42.50
2019-02-16T06:15:52.628Z,49.27
2019-02-16T06:18:21.249Z,43.80
2019-02-16T06:20:50.548Z,41.00
2019-02-16T06:23:21.585Z,47.33
2019-02-16T06:25:53.931Z,46.00
2019-02-16T06:28:28.805Z,51.67
2019-02-16T06:30:59.072Z,45.43
2019-02-16T06:33:27.660Z,43.93
2019-02-16T06:35:59.017Z,48.70
2019-02-16T06:38:28.569Z,47.87
2019-02-16T06:40:58.924Z,53.27
2019-02-16T06:43:27.546Z,46.50
2019-02-16T06:45:56.227Z,51.77
2019-02-16T06:48:24.719Z,45.67
2019-02-16T06:50:53.258Z,50.73
2019-02-16T06:53:21.761Z,52.53
2019-02-16T06:55:51.941Z,55.33
2019-02-16T06:58:20.449Z,51.17
2019-02-16T07:00:49.051Z,52.10
2019-02-16T07:03:17.551Z,47.97
2019-02-16T07:05:46.421Z,55.37
2019-02-16T07:08:14.914Z,53.27
2019-02-16T07:10:45.137Z,57.67
2019-02-16T07:13:13.725Z,55.33
2019-02-16T07:15:44.236Z,59.27
2019-02-16T07:18:17.314Z,59.10
2019-02-16T07:20:45.875Z,61.37
2019-02-16T07:23:22.303Z,65.87
2019-02-16T07:25:46.250Z,62.87
2019-02-16T07:28:16.086Z,55.60
2019-02-16T07:30:44.726Z,54.47
2019-02-16T07:33:13.352Z,63.20
2019-02-16T07:35:42.089Z,62.03
2019-02-16T07:38:10.691Z,70.37
2019-02-16T07:40:40.350Z,68.63
2019-02-16T07:43:10.501Z,65.23
2019-02-16T07:45:40.885Z,65.97
2019-02-16T07:48:14.205Z,64.63
2019-02-16T07:50:44.726Z,63.40
2019-02-16T07:53:32.974Z,66.57
2019-02-16T07:56:11.199Z,66.90
2019-02-16T07:58:46.816Z,59.40
2019-02-16T08:01:17.199Z,60.83
2019-02-16T08:03:50.549Z,66.57
2019-02-16T08:06:27.206Z,64.43
2019-02-16T08:09:06.996Z,61.43
2019-02-16T08:11:43.256Z,58.97
2019-02-16T08:14:31.721Z,63.00
2019-02-16T08:17:01.931Z,64.80
2019-02-16T08:19:32.138Z,69.40
2019-02-16T08:22:19.592Z,64.80
2019-02-16T08:25:08.064Z,67.93
2019-02-16T08:27:54.699Z,73.27
2019-02-16T08:30:25.049Z,68.70
2019-02-16T08:32:58.304Z,78.00
2019-02-16T08:35:44.822Z,67.43
2019-02-16T08:38:17.708Z,67.03
2019-02-16T08:40:47.988Z,70.07
2019-02-16T08:43:18.322Z,71.83
2019-02-16T08:45:52.303Z,68.43
2019-02-16T08:48:35.221Z,66.50
2019-02-16T08:51:20.576Z,70.37
2019-02-16T08:54:03.131Z,73.87
2019-02-16T08:56:45.827Z,67.17
2019-02-16T08:59:31.749Z,71.80
2019-02-16T09:02:02.317Z,58.63
2019-02-16T09:04:35.515Z,71.17
2019-02-16T09:07:05.995Z,72.90
2019-02-16T09:09:36.557Z,73.93
2019-02-16T09:12:16.075Z,69.20
2019-02-16T09:15:05.118Z,74.30
2019-02-16T09:17:35.915Z,74.00
2019-02-16T09:20:13.758Z,72.23
2019-02-16T09:22:56.325Z,69.60
2019-02-16T09:25:39.041Z,70.17
2019-02-16T09:28:26.075Z,63.90
2019-02-16T09:31:06.716Z,76.17
2019-02-16T09:33:47.755Z,74.87
2019-02-16T09:36:30.155Z,72.53
2019-02-16T09:39:01.835Z,68.70
2019-02-16T09:41:32.227Z,63.80
2019-02-16T09:44:05.595Z,67.77
2019-02-16T09:46:38.650Z,59.87
2019-02-16T09:49:12.386Z,66.33
2019-02-16T09:51:45.603Z,64.83
2019-02-16T09:54:21.929Z,59.73
2019-02-16T09:56:57.333Z,60.97
2019-02-16T09:59:42.891Z,56.57
2019-02-16T10:02:29.575Z,56.60
2019-02-16T10:05:00.210Z,65.57
2019-02-16T10:07:47.211Z,63.40
2019-02-16T10:10:21.605Z,56.13
2019-02-16T10:13:10.834Z,61.67
2019-02-16T10:15:47.246Z,53.23
2019-02-16T10:18:34.105Z,58.27
2019-02-16T10:21:14.524Z,57.60
2019-02-16T10:24:01.308Z,53.07
2019-02-16T10:26:31.915Z,56.37
2019-02-16T10:29:05.397Z,50.33
2019-02-16T10:31:39.196Z,55.60
2019-02-16T10:34:15.472Z,52.53
2019-02-16T10:37:02.250Z,51.87
2019-02-16T10:39:35.422Z,55.17
2019-02-16T10:42:06.225Z,63.80
2019-02-16T10:44:46.823Z,62.57
2019-02-16T10:47:23.626Z,53.77
2019-02-16T10:50:02.378Z,62.73
2019-02-16T10:52:32.633Z,59.83
2019-02-16T10:55:12.072Z,57.80
2019-02-16T10:57:42.674Z,53.07
2019-02-16T11:00:13.049Z,58.20
2019-02-16T11:02:48.766Z,63.87
2019-02-16T11:05:20.660Z,56.27
2019-02-16T11:07:54.417Z,56.67
2019-02-16T11:10:24.715Z,51.70
2019-02-16T11:12:57.988Z,49.00
2019-02-16T11:15:31.004Z,53.37
2019-02-16T11:18:07.098Z,53.27
2019-02-16T11:20:43.131Z,57.80
2019-02-16T11:23:22.360Z,49.53
2019-02-16T11:25:52.547Z,52.17
2019-02-16T11:28:41.197Z,51.83
2019-02-16T11:31:14.519Z,52.87
2019-02-16T11:33:59.822Z,55.53
2019-02-16T11:36:42.717Z,51.27
2019-02-16T11:39:13.169Z,52.77
2019-02-16T11:41:43.561Z,49.07
2019-02-16T11:44:13.769Z,50.90
2019-02-16T11:46:53.193Z,45.07
2019-02-16T11:49:23.639Z,50.57
2019-02-16T11:51:53.907Z,46.03
2019-02-16T11:54:33.430Z,45.17
2019-02-16T11:57:14.311Z,48.17
2019-02-16T11:59:50.102Z,42.00
2019-02-16T12:02:23.337Z,43.13
2019-02-16T12:04:53.793Z,30.93
2019-02-16T12:07:33.228Z,29.57
2019-02-16T12:10:09.629Z,33.57
2019-02-16T12:12:45.713Z,22.73
2019-02-16T12:15:37.554Z,29.87
2019-02-16T12:18:21.969Z,19.40
2019-02-16T12:20:57.333Z,18.47
2019-02-16T12:26:44.215Z,20.40
2019-02-16T12:29:32.015Z,16.27
2019-02-16T12:32:18.574Z,20.57
2019-02-16T12:34:51.695Z,18.33
2019-02-16T12:37:29.454Z,18.53
2019-02-16T12:40:03.335Z,15.00
2019-02-16T12:42:50.222Z,18.70
2019-02-16T12:45:36.615Z,20.63
2019-02-16T12:48:12.713Z,23.07
2019-02-16T12:50:45.736Z,16.77
2019-02-16T12:53:16.054Z,19.07
2019-02-16T12:55:58.374Z,18.70
2019-02-16T12:58:32.217Z,27.57
2019-02-16T13:01:05.534Z,22.97
2019-02-16T13:03:47.495Z,22.33
2019-02-16T13:06:20.727Z,22.80
2019-02-16T13:08:56.697Z,31.77
2019-02-16T13:11:29.669Z,22.73
2019-02-16T13:14:06.007Z,21.37
2019-02-16T13:16:39.172Z,24.50
2019-02-16T13:19:13.222Z,26.43
2019-02-16T13:21:47.200Z,25.57
2019-02-16T13:24:29.559Z,32.70
2019-02-16T13:27:19.288Z,22.13
2019-02-16T13:29:58.490Z,23.20
2019-02-16T13:32:31.778Z,19.73
2019-02-16T13:35:20.358Z,20.27
2019-02-16T13:37:56.598Z,23.97
2019-02-16T13:40:36.134Z,25.13
2019-02-16T13:43:09.433Z,22.10
2019-02-16T13:45:48.757Z,27.37
2019-02-16T13:48:31.150Z,21.70
2019-02-16T13:51:01.891Z,24.70
2019-02-16T13:53:35.362Z,25.30
2019-02-16T13:56:14.658Z,23.40
2019-02-16T13:59:04.164Z,23.57
2019-02-16T14:01:34.604Z,26.80
2019-02-16T14:04:17.324Z,29.40
2019-02-16T14:06:47.811Z,27.17
2019-02-16T14:09:19.972Z,32.90
2019-02-16T14:11:52.554Z,29.50
2019-02-16T14:14:33.727Z,33.77
2019-02-16T14:17:15.683Z,38.43
2019-02-16T14:19:44.484Z,36.20
2019-02-16T14:22:13.245Z,26.93
2019-02-16T14:24:46.563Z,24.60
2019-02-16T14:27:15.403Z,28.50
2019-02-16T14:29:44.123Z,24.13
2019-02-16T14:32:12.883Z,27.13
2019-02-16T14:34:44.603Z,28.10
2019-02-16T14:37:22.484Z,27.80
2019-02-16T14:39:52.643Z,26.87
2019-02-16T14:42:26.883Z,28.53
2019-02-16T14:44:55.645Z,27.93
2019-02-16T14:47:29.404Z,26.70
2019-02-16T14:49:58.203Z,23.70
2019-02-16T14:52:27.506Z,30.63
2019-02-16T14:54:56.440Z,33.27
2019-02-16T14:57:25.400Z,31.43
2019-02-16T14:59:54.320Z,32.47
2019-02-16T15:02:25.568Z,31.90
2019-02-16T15:04:55.850Z,33.40
2019-02-16T15:07:25.124Z,33.03
2019-02-16T15:09:54.183Z,30.23
2019-02-16T15:12:23.764Z,28.47
2019-02-16T15:14:54.547Z,31.60
2019-02-16T15:17:23.233Z,34.30
2019-02-16T15:19:52.058Z,30.13
2019-02-16T15:22:21.106Z,29.97
2019-02-16T15:24:50.190Z,27.03
2019-02-16T15:27:24.325Z,26.60
2019-02-16T15:29:53.135Z,25.47
2019-02-16T15:32:21.843Z,31.97
2019-02-16T15:34:50.535Z,24.87
2019-02-16T15:37:19.213Z,22.83
2019-02-16T15:39:47.893Z,26.80
2019-02-16T15:42:16.482Z,32.17
2019-02-16T15:44:45.265Z,25.87
2019-02-16T15:47:14.053Z,25.97
2019-02-16T15:49:42.555Z,23.60
2019-02-16T15:52:11.302Z,24.90
2019-02-16T15:54:39.893Z,22.87
2019-02-16T15:57:08.493Z,25.30
2019-02-16T15:59:37.099Z,26.50
2019-02-16T16:02:08.355Z,26.93
2019-02-16T16:04:40.306Z,27.73
2019-02-16T16:07:12.637Z,32.83
2019-02-16T16:09:43.251Z,32.03
2019-02-16T16:12:22.947Z,28.30
2019-02-16T16:14:53.534Z,27.93
2019-02-16T16:17:29.696Z,30.50
2019-02-16T16:20:07.109Z,30.03
2019-02-16T16:22:43.428Z,32.17
2019-02-16T16:25:15.271Z,33.93
2019-02-16T16:27:45.827Z,33.30
2019-02-16T16:30:22.662Z,34.50
2019-02-16T16:33:05.358Z,36.57
2019-02-16T16:35:44.839Z,36.33
2019-02-16T16:38:15.087Z,37.80
2019-02-16T16:40:51.501Z,43.37
2019-02-16T16:43:28.163Z,48.50
2019-02-16T16:46:15.059Z,53.83
2019-02-16T16:49:02.052Z,55.90
2019-02-16T16:51:32.519Z,48.80
2019-02-16T16:54:12.183Z,44.60
2019-02-16T16:56:42.736Z,44.00
2019-02-16T16:59:13.169Z,57.43
2019-02-16T17:01:43.684Z,51.80
2019-02-16T17:04:25.800Z,58.07
2019-02-16T17:06:56.353Z,58.53
2019-02-16T17:09:26.780Z,58.67
2019-02-16T17:12:13.878Z,64.93
2019-02-16T17:14:44.411Z,60.60
2019-02-16T17:17:29.707Z,60.77
2019-02-16T17:20:15.293Z,53.33
2019-02-16T17:22:51.544Z,64.53
2019-02-16T17:25:32.855Z,65.03
2019-02-16T17:28:03.714Z,63.23
2019-02-16T17:30:34.946Z,67.90
2019-02-16T17:33:08.988Z,66.10
2019-02-16T17:35:42.587Z,70.67
2019-02-16T17:38:25.269Z,70.77
2019-02-16T17:41:14.487Z,69.43
2019-02-16T17:43:50.331Z,70.27
2019-02-16T17:46:30.090Z,62.43
2019-02-16T17:49:16.851Z,70.00
2019-02-16T17:52:03.726Z,73.40
2019-02-16T17:54:34.211Z,68.77
2019-02-16T17:57:20.934Z,164.37
2019-02-16T17:59:51.508Z,86.83
2019-02-16T18:02:26.417Z,79.30
2019-02-16T18:04:57.258Z,76.40
2019-02-16T18:07:46.603Z,82.93
2019-02-16T18:13:03.676Z,67.57
2019-02-16T18:15:51.150Z,54.20
2019-02-16T18:18:27.595Z,90.40
2019-02-16T18:21:15.315Z,67.90
2019-02-16T18:24:02.618Z,58.87
2019-02-16T18:26:42.827Z,54.53
2019-02-16T18:29:22.120Z,56.77
2019-02-16T18:31:55.758Z,54.17
2019-02-16T18:34:35.577Z,56.03
2019-02-16T18:37:12.154Z,51.93
2019-02-16T18:40:01.151Z,59.20
2019-02-16T18:42:37.838Z,58.70
2019-02-16T18:45:12.901Z,58.40
2019-02-16T18:48:03.643Z,52.80
2019-02-16T18:50:49.275Z,56.53
2019-02-16T22:08:31.550Z,85.83
2019-02-16T22:11:07.495Z,69.33
2019-02-16T22:13:36.296Z,66.83
2019-02-16T22:16:05.196Z,69.90
2019-02-16T22:18:33.948Z,87.73
2019-02-16T22:21:02.847Z,73.60
2019-02-16T22:23:31.644Z,95.10
2019-02-16T22:26:00.636Z,79.53
2019-02-16T22:28:31.304Z,81.33
2019-02-16T22:31:00.149Z,92.30
2019-02-16T22:33:28.947Z,102.27
2019-02-16T22:35:57.771Z,73.13
2019-02-16T22:38:29.684Z,104.03
2019-02-16T22:40:58.732Z,74.70
2019-02-16T22:43:27.613Z,98.47
2019-02-16T22:45:56.239Z,98.87
2019-02-16T22:48:24.935Z,73.47
2019-02-16T22:50:53.939Z,64.33
2019-02-16T22:53:22.832Z,80.23
2019-02-16T22:55:51.579Z,63.73
2019-02-16T22:58:28.561Z,81.10
2019-02-16T23:00:51.330Z,79.93
2019-02-16T23:03:20.007Z,81.13
2019-02-16T23:05:48.877Z,85.10
2019-02-16T23:08:17.789Z,88.40
2019-02-16T23:10:48.180Z,81.73
2019-02-16T23:13:17.030Z,80.80
2019-02-16T23:15:45.823Z,84.17
2019-02-16T23:18:14.652Z,69.00
2019-02-16T23:20:43.275Z,76.10
2019-02-16T23:23:12.223Z,70.47
2019-02-16T23:25:40.959Z,64.97
2019-02-16T23:28:09.797Z,73.23
2019-02-16T23:30:38.730Z,61.73
2019-02-16T23:33:07.490Z,64.73
2019-02-16T23:35:36.211Z,61.57
2019-02-16T23:38:23.531Z,65.90
2019-02-16T23:40:52.194Z,80.73
2019-02-16T23:43:21.108Z,69.80
2019-02-16T23:45:50.188Z,78.23
2019-02-16T23:48:19.032Z,51.60
2019-02-16T23:50:47.541Z,72.67
2019-02-16T23:53:16.330Z,101.70
2019-02-16T23:55:45.223Z,78.90
2019-02-16T23:58:13.900Z,66.17
